createdAt,value
2019-06-27T00:00:58.204Z,20.70
2019-06-27T00:03:28.672Z,20.70
2019-06-27T00:05:59.031Z,20.60
2019-06-27T00:08:29.757Z,20.60
2019-06-27T00:11:00.151Z,20.60
2019-06-27T00:13:30.507Z,20.60
2019-06-27T00:16:00.887Z,20.60
2019-06-27T00:18:31.234Z,20.50
2019-06-27T00:21:01.618Z,20.50
2019-06-27T00:23:32.076Z,20.50
2019-06-27T00:26:02.553Z,20.50
2019-06-27T00:28:32.913Z,20.50
2019-06-27T00:31:03.373Z,20.50
2019-06-27T00:33:33.933Z,20.40
2019-06-27T00:36:04.331Z,20.40
2019-06-27T00:38:34.703Z,20.40
2019-06-27T00:41:05.181Z,20.30
2019-06-27T00:43:35.565Z,20.30
2019-06-27T00:46:06.025Z,20.30
2019-06-27T00:48:36.373Z,20.30
2019-06-27T00:51:06.740Z,20.20
2019-06-27T00:53:37.213Z,20.20
2019-06-27T00:56:07.567Z,20.20
2019-06-27T00:58:38.048Z,20.10
2019-06-27T01:01:08.623Z,20.10
2019-06-27T01:03:38.999Z,20.10
2019-06-27T01:06:09.464Z,20.00
2019-06-27T01:08:39.836Z,20.00
2019-06-27T01:11:10.409Z,20.00
2019-06-27T01:13:40.813Z,20.00
2019-06-27T01:16:11.192Z,20.00
2019-06-27T01:18:41.608Z,20.00
2019-06-27T01:21:12.077Z,20.00
2019-06-27T01:23:45.074Z,20.00
2019-06-27T01:26:14.512Z,20.00
2019-06-27T01:28:45.228Z,19.90
2019-06-27T01:31:15.610Z,19.90
2019-06-27T01:33:46.157Z,19.90
2019-06-27T01:36:16.628Z,20.00
2019-06-27T01:38:47.046Z,20.00
2019-06-27T01:41:17.390Z,20.00
2019-06-27T01:43:47.764Z,19.90
2019-06-27T01:46:18.108Z,19.90
2019-06-27T01:48:48.482Z,19.80
2019-06-27T01:51:18.929Z,19.80
2019-06-27T01:53:49.400Z,19.80
2019-06-27T01:56:19.748Z,19.80
2019-06-27T01:58:50.132Z,19.80
2019-06-27T02:01:20.580Z,19.80
2019-06-27T02:03:51.047Z,19.70
2019-06-27T02:06:21.505Z,19.60
2019-06-27T02:08:51.973Z,19.60
2019-06-27T02:11:22.389Z,19.60
2019-06-27T02:13:52.752Z,19.60
2019-06-27T02:16:23.216Z,19.50
2019-06-27T02:18:53.564Z,19.50
2019-06-27T02:21:23.945Z,19.50
2019-06-27T02:23:54.392Z,19.50
2019-06-27T02:26:24.761Z,19.50
2019-06-27T02:28:55.145Z,19.40
2019-06-27T02:31:25.640Z,19.50
2019-06-27T02:33:56.028Z,19.50
2019-06-27T02:36:26.401Z,19.50
2019-06-27T02:38:56.909Z,19.40
2019-06-27T02:41:27.370Z,19.40
2019-06-27T02:43:57.897Z,19.40
2019-06-27T02:46:28.254Z,19.30
2019-06-27T02:48:58.628Z,19.30
2019-06-27T02:51:29.085Z,19.30
2019-06-27T02:53:59.437Z,19.30
2019-06-27T02:56:29.804Z,19.30
2019-06-27T02:59:00.217Z,19.30
2019-06-27T03:01:30.583Z,19.30
2019-06-27T03:04:00.989Z,19.30
2019-06-27T03:06:31.448Z,19.20
2019-06-27T03:09:01.878Z,19.20
2019-06-27T03:11:32.289Z,19.20
2019-06-27T03:14:02.656Z,19.20
2019-06-27T03:16:32.909Z,19.20
2019-06-27T03:19:03.421Z,19.20
2019-06-27T03:21:33.868Z,19.20
2019-06-27T03:24:04.341Z,19.20
2019-06-27T03:26:34.692Z,19.20
2019-06-27T03:29:05.152Z,19.20
2019-06-27T03:31:35.605Z,19.20
2019-06-27T03:34:05.991Z,19.20
2019-06-27T03:36:36.336Z,19.20
2019-06-27T03:39:06.877Z,19.20
2019-06-27T03:41:37.251Z,19.20
2019-06-27T03:44:07.640Z,19.30
2019-06-27T03:46:38.001Z,19.30
2019-06-27T03:49:08.387Z,19.40
2019-06-27T03:51:38.808Z,19.40
2019-06-27T03:54:09.180Z,19.50
2019-06-27T03:56:39.554Z,19.60
2019-06-27T03:59:12.992Z,19.70
2019-06-27T04:01:41.976Z,19.70
2019-06-27T04:04:12.457Z,19.80
2019-06-27T04:06:42.934Z,19.90
2019-06-27T04:09:13.316Z,20.00
2019-06-27T04:11:43.802Z,20.40
2019-06-27T04:14:14.186Z,20.80
2019-06-27T04:16:48.681Z,21.30
2019-06-27T04:19:16.550Z,21.80
2019-06-27T04:21:46.945Z,22.30
2019-06-27T04:24:17.293Z,22.70
2019-06-27T04:26:47.785Z,23.10
2019-06-27T04:29:32.752Z,23.60
2019-06-27T04:31:50.265Z,24.00
2019-06-27T04:34:20.638Z,24.30
2019-06-27T04:36:51.142Z,24.80
2019-06-27T04:39:21.499Z,25.20
2019-06-27T04:41:51.992Z,25.30
2019-06-27T04:44:22.378Z,25.60
2019-06-27T04:46:52.750Z,25.90
2019-06-27T04:49:23.103Z,26.30
2019-06-27T04:51:53.464Z,26.60
2019-06-27T04:54:23.824Z,26.80
2019-06-27T04:56:54.188Z,27.00
2019-06-27T04:59:24.556Z,27.30
2019-06-27T05:01:54.924Z,27.10
2019-06-27T05:04:25.304Z,27.50
2019-06-27T05:06:55.653Z,27.60
2019-06-27T05:09:26.000Z,28.00
2019-06-27T05:11:56.356Z,28.20
2019-06-27T05:14:26.741Z,28.40
2019-06-27T05:16:57.100Z,28.80
2019-06-27T05:19:27.464Z,29.00
2019-06-27T05:21:57.832Z,29.30
2019-06-27T05:24:28.181Z,29.50
2019-06-27T05:26:58.708Z,29.80
2019-06-27T05:29:29.066Z,30.20
2019-06-27T05:31:59.532Z,30.30
2019-06-27T05:34:30.112Z,30.20
2019-06-27T05:37:00.450Z,30.30
2019-06-27T05:39:30.943Z,30.50
2019-06-27T05:42:01.284Z,30.90
2019-06-27T05:44:31.756Z,31.20
2019-06-27T05:47:02.097Z,31.40
2019-06-27T05:49:32.459Z,31.50
2019-06-27T05:52:02.818Z,31.60
2019-06-27T05:54:33.271Z,31.80
2019-06-27T05:57:03.913Z,32.20
2019-06-27T05:59:34.584Z,32.20
2019-06-27T06:02:05.034Z,32.20
2019-06-27T06:04:35.386Z,32.50
2019-06-27T06:07:05.676Z,32.60
2019-06-27T06:09:36.031Z,32.70
2019-06-27T06:12:06.578Z,32.90
2019-06-27T06:14:36.968Z,33.10
2019-06-27T06:17:07.513Z,33.20
2019-06-27T06:19:38.066Z,33.60
2019-06-27T06:22:08.342Z,33.60
2019-06-27T06:24:38.696Z,33.60
2019-06-27T06:27:09.145Z,33.50
2019-06-27T06:29:39.531Z,33.40
2019-06-27T06:32:10.218Z,33.30
2019-06-27T06:34:40.580Z,33.50
2019-06-27T06:37:10.901Z,33.90
2019-06-27T06:39:41.383Z,34.10
2019-06-27T06:42:11.853Z,34.10
2019-06-27T06:44:42.266Z,34.20
2019-06-27T06:47:13.200Z,34.20
2019-06-27T06:49:43.559Z,34.20
2019-06-27T06:52:14.009Z,34.10
2019-06-27T06:54:44.563Z,34.10
2019-06-27T06:57:14.991Z,34.30
2019-06-27T06:59:45.401Z,34.50
2019-06-27T07:02:15.860Z,34.80
2019-06-27T07:04:46.357Z,34.80
2019-06-27T07:07:16.916Z,35.10
2019-06-27T07:09:47.364Z,35.20
2019-06-27T07:12:17.919Z,35.10
2019-06-27T07:14:48.193Z,35.10
2019-06-27T07:17:18.565Z,35.60
2019-06-27T07:19:49.011Z,36.00
2019-06-27T07:22:19.493Z,35.90
2019-06-27T07:24:49.935Z,36.10
2019-06-27T07:27:20.417Z,36.00
2019-06-27T07:29:50.777Z,36.10
2019-06-27T07:32:21.271Z,36.00
2019-06-27T07:34:51.643Z,35.90
2019-06-27T07:37:21.995Z,35.90
2019-06-27T07:39:52.518Z,35.80
2019-06-27T07:42:23.369Z,35.90
2019-06-27T07:44:53.826Z,35.90
2019-06-27T07:47:24.211Z,36.00
2019-06-27T07:49:54.581Z,36.20
2019-06-27T07:52:25.039Z,35.90
2019-06-27T07:54:55.509Z,35.90
2019-06-27T07:57:25.867Z,35.90
2019-06-27T07:59:56.327Z,35.90
2019-06-27T08:02:26.794Z,36.20
2019-06-27T08:04:57.161Z,36.30
2019-06-27T08:07:27.656Z,36.30
2019-06-27T08:09:58.009Z,36.40
2019-06-27T08:12:28.574Z,36.50
2019-06-27T08:14:58.923Z,36.50
2019-06-27T08:17:29.271Z,36.70
2019-06-27T08:19:59.626Z,36.70
2019-06-27T08:22:29.915Z,36.60
2019-06-27T08:25:00.280Z,36.60
2019-06-27T08:27:30.740Z,36.70
2019-06-27T08:30:01.143Z,36.60
2019-06-27T08:32:31.597Z,36.60
2019-06-27T08:35:01.990Z,36.60
2019-06-27T08:37:32.459Z,36.60
2019-06-27T08:40:02.800Z,36.40
2019-06-27T08:42:33.158Z,36.50
2019-06-27T08:45:03.674Z,36.60
2019-06-27T08:47:34.035Z,36.60
2019-06-27T08:50:04.494Z,36.60
2019-06-27T08:52:34.855Z,36.50
2019-06-27T08:55:05.293Z,36.50
2019-06-27T08:57:35.679Z,36.40
2019-06-27T09:00:07.403Z,36.40
2019-06-27T09:02:37.597Z,36.60
2019-06-27T09:05:11.366Z,36.50
2019-06-27T09:07:41.840Z,36.50
2019-06-27T09:10:12.591Z,36.50
2019-06-27T09:12:43.324Z,36.60
2019-06-27T09:15:13.899Z,36.70
2019-06-27T09:17:44.257Z,36.70
2019-06-27T09:20:16.414Z,36.80
2019-06-27T09:22:47.064Z,36.70
2019-06-27T09:25:17.567Z,36.70
2019-06-27T09:27:47.990Z,36.70
2019-06-27T09:30:18.749Z,36.60
2019-06-27T09:32:49.390Z,36.40
2019-06-27T09:35:19.852Z,36.30
2019-06-27T09:37:50.198Z,36.20
2019-06-27T09:40:20.878Z,36.10
2019-06-27T09:42:51.176Z,36.10
2019-06-27T09:45:21.741Z,36.00
2019-06-27T09:47:52.095Z,35.90
2019-06-27T09:50:22.998Z,35.80
2019-06-27T09:52:53.278Z,35.80
2019-06-27T09:55:23.718Z,35.80
2019-06-27T09:57:53.994Z,35.90
2019-06-27T10:00:24.525Z,35.80
2019-06-27T10:02:55.189Z,35.90
2019-06-27T10:05:25.548Z,35.80
2019-06-27T10:07:55.999Z,35.60
2019-06-27T10:10:26.369Z,35.30
2019-06-27T10:12:56.728Z,35.10
2019-06-27T10:15:27.140Z,35.10
2019-06-27T10:17:57.522Z,35.00
2019-06-27T10:20:27.854Z,34.80
2019-06-27T10:22:58.222Z,34.60
2019-06-27T10:25:28.694Z,34.50
2019-06-27T10:27:59.215Z,34.40
2019-06-27T10:30:29.684Z,34.30
2019-06-27T10:33:00.584Z,34.30
2019-06-27T10:35:30.991Z,34.20
2019-06-27T10:38:01.445Z,34.30
2019-06-27T10:40:31.785Z,34.40
2019-06-27T10:43:02.142Z,34.40
2019-06-27T10:45:32.588Z,34.50
2019-06-27T10:48:03.075Z,34.60
2019-06-27T10:50:33.524Z,34.70
2019-06-27T10:53:03.798Z,34.60
2019-06-27T10:55:34.183Z,34.50
2019-06-27T10:58:04.648Z,34.60
2019-06-27T11:00:34.996Z,34.60
2019-06-27T11:03:14.865Z,34.60
2019-06-27T11:05:37.488Z,34.70
2019-06-27T11:08:08.039Z,34.70
2019-06-27T11:10:38.399Z,34.70
2019-06-27T11:13:08.702Z,34.80
2019-06-27T11:15:39.285Z,35.00
2019-06-27T11:18:09.615Z,35.10
2019-06-27T11:20:40.188Z,35.10
2019-06-27T11:23:10.633Z,35.10
2019-06-27T11:25:41.007Z,35.10
2019-06-27T11:28:11.486Z,35.00
2019-06-27T11:30:41.830Z,34.90
2019-06-27T11:33:12.488Z,35.00
2019-06-27T11:35:42.823Z,35.00
2019-06-27T11:38:13.284Z,35.00
2019-06-27T11:40:43.748Z,34.90
2019-06-27T11:43:14.111Z,34.90
2019-06-27T11:45:44.463Z,34.90
2019-06-27T11:48:14.951Z,34.90
2019-06-27T11:50:45.230Z,35.00
2019-06-27T11:53:15.521Z,35.10
2019-06-27T11:55:46.007Z,35.10
2019-06-27T11:58:16.486Z,35.10
2019-06-27T12:00:46.884Z,35.10
2019-06-27T12:03:17.523Z,35.10
2019-06-27T12:05:48.218Z,35.10
2019-06-27T12:08:18.636Z,35.20
2019-06-27T12:10:49.028Z,35.20
2019-06-27T12:13:20.314Z,35.30
2019-06-27T12:15:51.685Z,35.20
2019-06-27T12:18:22.231Z,35.10
2019-06-27T12:20:52.604Z,35.10
2019-06-27T12:23:22.972Z,35.10
2019-06-27T12:25:53.439Z,35.20
2019-06-27T12:28:23.903Z,35.30
2019-06-27T12:30:54.271Z,35.40
2019-06-27T12:33:24.751Z,35.40
2019-06-27T12:35:55.108Z,35.30
2019-06-27T12:38:25.585Z,35.20
2019-06-27T12:40:56.031Z,35.30
2019-06-27T12:43:27.839Z,35.20
2019-06-27T12:45:58.295Z,35.10
2019-06-27T12:48:28.843Z,35.20
2019-06-27T12:50:59.220Z,35.40
2019-06-27T12:53:29.579Z,35.70
2019-06-27T12:55:59.967Z,35.80
2019-06-27T12:58:30.663Z,36.10
2019-06-27T13:01:01.147Z,36.10
2019-06-27T13:03:31.733Z,36.20
2019-06-27T13:06:02.113Z,36.10
2019-06-27T13:08:32.503Z,36.10
2019-06-27T13:11:02.975Z,36.10
2019-06-27T13:13:33.351Z,36.10
2019-06-27T13:16:03.889Z,36.20
2019-06-27T13:18:35.762Z,36.20
2019-06-27T13:21:06.195Z,36.30
2019-06-27T13:23:36.562Z,36.40
2019-06-27T13:26:06.909Z,36.40
2019-06-27T13:28:37.396Z,36.40
2019-06-27T13:31:07.798Z,36.40
2019-06-27T13:33:38.100Z,36.30
2019-06-27T13:36:08.549Z,36.20
2019-06-27T13:38:38.991Z,36.20
2019-06-27T13:41:09.383Z,36.30
2019-06-27T13:43:39.750Z,36.40
2019-06-27T13:46:10.059Z,36.50
2019-06-27T13:48:40.516Z,36.60
2019-06-27T13:51:10.866Z,36.80
2019-06-27T13:53:41.466Z,36.80
2019-06-27T13:56:11.843Z,36.90
2019-06-27T13:58:42.156Z,37.00
2019-06-27T14:01:12.517Z,36.90
2019-06-27T14:03:49.220Z,36.70
2019-06-27T14:06:15.278Z,36.60
2019-06-27T14:08:45.759Z,36.50
2019-06-27T14:11:16.287Z,36.40
2019-06-27T14:13:46.648Z,36.20
2019-06-27T14:16:17.124Z,36.20
2019-06-27T14:18:47.475Z,36.00
2019-06-27T14:21:17.838Z,36.00
2019-06-27T14:23:48.424Z,36.10
2019-06-27T14:26:18.795Z,36.10
2019-06-27T14:28:49.143Z,36.20
2019-06-27T14:31:19.459Z,36.00
2019-06-27T14:33:50.055Z,36.00
2019-06-27T14:36:20.410Z,35.90
2019-06-27T14:38:50.677Z,35.80
2019-06-27T14:41:21.187Z,35.80
2019-06-27T14:43:51.549Z,35.80
2019-06-27T14:46:21.898Z,35.70
2019-06-27T14:48:52.368Z,35.70
2019-06-27T14:51:22.774Z,35.50
2019-06-27T14:53:53.239Z,35.40
2019-06-27T14:56:23.682Z,35.20
2019-06-27T14:58:54.072Z,34.90
2019-06-27T15:01:24.513Z,34.40
2019-06-27T15:03:54.863Z,33.70
2019-06-27T15:06:25.218Z,32.90
2019-06-27T15:08:55.603Z,32.40
2019-06-27T15:11:26.142Z,31.70
2019-06-27T15:13:56.503Z,31.30
2019-06-27T15:16:26.962Z,31.10
2019-06-27T15:18:57.403Z,31.00
2019-06-27T15:21:27.828Z,30.90
2019-06-27T15:23:58.327Z,30.90
2019-06-27T15:26:28.685Z,30.90
2019-06-27T15:28:59.039Z,30.90
2019-06-27T15:31:29.495Z,30.90
2019-06-27T15:33:59.964Z,30.80
2019-06-27T15:36:30.314Z,30.70
2019-06-27T15:39:00.779Z,30.70
2019-06-27T15:41:31.142Z,30.70
2019-06-27T15:44:01.428Z,30.60
2019-06-27T15:46:31.991Z,30.50
2019-06-27T15:49:02.412Z,30.50
2019-06-27T15:51:32.955Z,30.40
2019-06-27T15:54:03.300Z,30.40
2019-06-27T15:56:33.752Z,30.20
2019-06-27T15:59:04.200Z,30.10
2019-06-27T16:01:34.608Z,30.00
2019-06-27T16:04:05.104Z,29.80
2019-06-27T16:06:35.469Z,29.60
2019-06-27T16:09:06.263Z,29.60
2019-06-27T16:11:36.618Z,29.50
2019-06-27T16:14:07.111Z,29.50
2019-06-27T16:16:37.459Z,29.50
2019-06-27T16:19:07.921Z,29.60
2019-06-27T16:21:38.307Z,29.60
2019-06-27T16:24:08.832Z,29.70
2019-06-27T16:26:39.287Z,29.70
2019-06-27T16:29:09.587Z,29.70
2019-06-27T16:31:39.990Z,29.60
2019-06-27T16:34:10.442Z,29.60
2019-06-27T16:36:40.815Z,29.60
2019-06-27T16:39:11.171Z,29.50
2019-06-27T16:41:41.536Z,29.50
2019-06-27T16:44:11.903Z,29.30
2019-06-27T16:46:42.265Z,29.30
2019-06-27T16:49:12.650Z,29.20
2019-06-27T16:51:42.997Z,29.20
2019-06-27T16:54:13.613Z,29.20
2019-06-27T16:56:43.951Z,29.20
2019-06-27T16:59:14.359Z,29.10
2019-06-27T17:01:44.897Z,29.10
2019-06-27T17:04:15.546Z,29.00
2019-06-27T17:06:47.380Z,29.00
2019-06-27T17:12:13.860Z,28.70
2019-06-27T17:14:44.409Z,28.60
2019-06-27T17:17:14.857Z,28.50
2019-06-27T17:19:45.344Z,28.40
2019-06-27T17:22:15.846Z,28.30
2019-06-27T17:24:46.235Z,28.30
2019-06-27T17:27:16.691Z,28.10
2019-06-27T17:29:47.142Z,27.90
2019-06-27T17:32:17.618Z,27.90
2019-06-27T17:34:48.072Z,27.80
2019-06-27T17:37:18.971Z,27.70
2019-06-27T17:39:49.451Z,27.80
2019-06-27T17:42:20.195Z,27.70
2019-06-27T17:44:50.697Z,27.70
2019-06-27T17:47:21.184Z,27.70
2019-06-27T17:49:51.833Z,27.70
2019-06-27T17:52:22.721Z,27.70
2019-06-27T17:54:53.099Z,27.60
2019-06-27T17:57:23.555Z,27.50
2019-06-27T17:59:53.957Z,27.40
2019-06-27T18:02:24.414Z,27.20
2019-06-27T18:04:54.900Z,27.10
2019-06-27T18:07:25.429Z,27.00
2019-06-27T18:09:56.548Z,26.80
2019-06-27T18:12:27.614Z,26.60
2019-06-27T18:14:58.334Z,26.50
2019-06-27T18:17:33.731Z,26.40
2019-06-27T18:20:03.640Z,26.40
2019-06-27T18:22:38.716Z,26.30
2019-06-27T18:25:09.868Z,26.10
2019-06-27T18:27:40.188Z,26.00
2019-06-27T18:30:11.974Z,25.90
2019-06-27T18:32:43.717Z,25.70
2019-06-27T18:35:14.505Z,25.60
2019-06-27T18:37:44.860Z,25.60
2019-06-27T18:40:15.512Z,25.50
2019-06-27T18:42:46.028Z,25.50
2019-06-27T18:45:16.441Z,25.40
2019-06-27T18:47:47.054Z,25.40
2019-06-27T18:50:17.407Z,25.30
2019-06-27T18:52:47.977Z,25.20
2019-06-27T18:55:19.980Z,25.20
2019-06-27T18:57:50.387Z,25.20
2019-06-27T19:00:23.939Z,25.10
2019-06-27T19:03:04.304Z,25.10
2019-06-27T19:05:34.763Z,25.00
2019-06-27T19:08:05.127Z,24.90
2019-06-27T19:10:35.515Z,24.80
2019-06-27T19:13:05.964Z,24.70
2019-06-27T19:15:36.326Z,24.70
2019-06-27T19:18:09.295Z,24.60
2019-06-27T19:20:45.760Z,24.50
2019-06-27T19:23:33.820Z,24.50
2019-06-27T19:26:04.755Z,24.40
2019-06-27T19:28:35.993Z,24.30
2019-06-27T19:31:06.833Z,24.30
2019-06-27T19:33:37.466Z,24.30
2019-06-27T19:36:08.292Z,24.30
2019-06-27T19:38:38.648Z,24.20
2019-06-27T19:41:09.487Z,24.20
2019-06-27T19:43:39.997Z,24.10
2019-06-27T19:46:10.535Z,24.00
2019-06-27T19:48:40.938Z,23.90
2019-06-27T19:51:11.431Z,23.90
2019-06-27T19:53:41.786Z,23.80
2019-06-27T19:56:12.140Z,23.80
2019-06-27T19:58:42.603Z,23.60
2019-06-27T20:01:13.015Z,23.50
2019-06-27T20:03:43.635Z,23.50
2019-06-27T20:06:13.935Z,23.40
2019-06-27T20:08:44.494Z,23.40
2019-06-27T20:11:14.915Z,23.30
2019-06-27T20:13:45.353Z,23.20
2019-06-27T20:16:15.723Z,23.20
2019-06-27T20:18:46.309Z,23.10
2019-06-27T20:21:16.676Z,23.10
2019-06-27T20:23:47.118Z,23.00
2019-06-27T20:26:17.614Z,23.00
2019-06-27T20:28:48.155Z,23.00
2019-06-27T20:31:20.754Z,22.80
2019-06-27T20:33:50.707Z,22.80
2019-06-27T20:36:21.071Z,22.70
2019-06-27T20:38:51.411Z,22.70
2019-06-27T20:41:21.755Z,22.70
2019-06-27T20:43:52.727Z,22.60
2019-06-27T20:46:23.151Z,22.70
2019-06-27T20:48:54.378Z,22.70
2019-06-27T20:51:25.200Z,22.70
2019-06-27T20:53:55.595Z,22.70
2019-06-27T20:56:26.122Z,22.70
2019-06-27T20:58:56.608Z,22.70
2019-06-27T21:01:26.999Z,22.60
2019-06-27T21:03:57.445Z,22.60
2019-06-27T21:06:27.911Z,22.50
2019-06-27T21:08:58.219Z,22.50
2019-06-27T21:11:28.619Z,22.40
2019-06-27T21:13:58.943Z,22.40
2019-06-27T21:16:29.422Z,22.30
2019-06-27T21:18:59.922Z,22.30
2019-06-27T21:21:30.403Z,22.30
2019-06-27T21:24:00.831Z,22.20
2019-06-27T21:26:31.315Z,22.10
2019-06-27T21:29:01.698Z,22.10
2019-06-27T21:31:32.366Z,22.10
2019-06-27T21:34:02.675Z,22.10
2019-06-27T21:36:33.323Z,22.00
2019-06-27T21:39:07.918Z,22.00
2019-06-27T21:41:37.424Z,21.90
2019-06-27T21:44:08.606Z,21.80
2019-06-27T21:46:38.956Z,21.80
2019-06-27T21:49:11.469Z,21.70
2019-06-27T21:51:42.260Z,21.70
2019-06-27T21:54:12.944Z,21.60
2019-06-27T21:56:43.725Z,21.60
2019-06-27T21:59:14.146Z,21.60
2019-06-27T22:01:44.722Z,21.50
2019-06-27T22:04:15.326Z,21.50
2019-06-27T22:06:45.762Z,21.50
2019-06-27T22:09:24.584Z,21.40
2019-06-27T22:11:48.576Z,21.40
2019-06-27T22:14:19.220Z,21.40
2019-06-27T22:16:49.779Z,21.30
2019-06-27T22:19:20.247Z,21.30
2019-06-27T22:21:50.703Z,21.20
2019-06-27T22:24:21.123Z,21.20
2019-06-27T22:26:51.619Z,21.20
2019-06-27T22:29:22.102Z,21.10
2019-06-27T22:31:52.595Z,21.00
2019-06-27T22:34:23.139Z,20.90
2019-06-27T22:36:59.444Z,20.90
2019-06-27T22:39:47.558Z,20.80
2019-06-27T22:42:35.600Z,20.70
2019-06-27T22:45:24.298Z,20.80
2019-06-27T22:48:12.466Z,20.80
2019-06-27T22:51:03.007Z,20.80
2019-06-27T22:53:37.347Z,20.80
2019-06-27T22:56:07.724Z,20.80
2019-06-27T22:58:39.620Z,20.80
2019-06-27T23:01:09.990Z,20.80
2019-06-27T23:03:40.478Z,20.70
2019-06-27T23:06:10.838Z,20.70
2019-06-27T23:08:41.124Z,20.60
2019-06-27T23:11:11.515Z,20.60
2019-06-27T23:13:41.871Z,20.60
2019-06-27T23:16:12.240Z,20.60
2019-06-27T23:18:42.670Z,20.60
2019-06-27T23:21:13.038Z,20.60
2019-06-27T23:23:43.454Z,20.50
2019-06-27T23:26:13.918Z,20.60
2019-06-27T23:28:44.272Z,20.50
2019-06-27T23:31:14.631Z,20.60
2019-06-27T23:33:45.128Z,20.60
2019-06-27T23:36:15.663Z,20.60
2019-06-27T23:38:46.111Z,20.50
2019-06-27T23:41:16.505Z,20.50
2019-06-27T23:43:46.825Z,20.40
2019-06-27T23:46:34.871Z,20.30
2019-06-27T23:49:05.367Z,20.30
2019-06-27T23:51:35.744Z,20.30
2019-06-27T23:54:06.134Z,20.20
2019-06-27T23:56:36.883Z,20.30
2019-06-27T23:59:07.246Z,20.30
